sensor_id;sensor_type;location;lat;lon;timestamp;pressure;altitude;pressure_sealevel;temperature;humidity
62038;BME280;47991;42.974;12.082;2023-05-03T00:00:49;97206.08;;;22.35;60.47
62038;BME280;47991;42.974;12.082;2023-05-03T00:03:16;97203.65;;;22.34;60.57
62038;BME280;47991;42.974;12.082;2023-05-03T00:05:47;97201.05;;;22.32;60.39
62038;BME280;47991;42.974;12.082;2023-05-03T00:08:28;97200.56;;;22.32;60.55
62038;BME280;47991;42.974;12.082;2023-05-03T00:10:58;97202.83;;;22.31;60.62
62038;BME280;47991;42.974;12.082;2023-05-03T00:13:40;97198.07;;;22.29;60.62
62038;BME280;47991;42.974;12.082;2023-05-03T00:16:06;97194.91;;;22.29;60.49
62038;BME280;47991;42.974;12.082;2023-05-03T00:18:48;97193.00;;;22.28;60.51
62038;BME280;47991;42.974;12.082;2023-05-03T00:21:15;97190.69;;;22.27;60.56
62038;BME280;47991;42.974;12.082;2023-05-03T00:23:57;97191.54;;;22.26;60.65
62038;BME280;47991;42.974;12.082;2023-05-03T00:26:40;97196.84;;;22.24;60.69
62038;BME280;47991;42.974;12.082;2023-05-03T00:29:07;97196.14;;;22.24;60.66
62038;BME280;47991;42.974;12.082;2023-05-03T00:31:33;97192.17;;;22.24;60.74
62038;BME280;47991;42.974;12.082;2023-05-03T00:34:15;97194.85;;;22.25;60.75
62038;BME280;47991;42.974;12.082;2023-05-03T00:36:55;97193.08;;;22.24;60.65
62038;BME280;47991;42.974;12.082;2023-05-03T00:39:37;97190.90;;;22.25;60.76
62038;BME280;47991;42.974;12.082;2023-05-03T00:42:19;97194.84;;;22.25;60.78
62038;BME280;47991;42.974;12.082;2023-05-03T00:45:00;97196.13;;;22.24;60.79
62038;BME280;47991;42.974;12.082;2023-05-03T00:47:44;97198.23;;;22.25;60.93
62038;BME280;47991;42.974;12.082;2023-05-03T00:50:25;97199.29;;;22.25;60.78
62038;BME280;47991;42.974;12.082;2023-05-03T00:53:05;97197.64;;;22.26;60.76
62038;BME280;47991;42.974;12.082;2023-05-03T00:55:32;97193.68;;;22.26;60.74
62038;BME280;47991;42.974;12.082;2023-05-03T00:57:59;97197.23;;;22.26;60.78
62038;BME280;47991;42.974;12.082;2023-05-03T01:00:25;97197.02;;;22.27;60.63
62038;BME280;47991;42.974;12.082;2023-05-03T01:03:06;97195.94;;;22.27;60.63
62038;BME280;47991;42.974;12.082;2023-05-03T01:05:39;97198.82;;;22.27;60.70
62038;BME280;47991;42.974;12.082;2023-05-03T01:08:31;97196.46;;;22.27;60.66
62038;BME280;47991;42.974;12.082;2023-05-03T01:11:07;97191.08;;;22.27;60.45
62038;BME280;47991;42.974;12.082;2023-05-03T01:13:54;97196.86;;;22.27;60.61
62038;BME280;47991;42.974;12.082;2023-05-03T01:19:49;97195.59;;;22.25;60.63
62038;BME280;47991;42.974;12.082;2023-05-03T01:22:36;97195.21;;;22.25;60.42
62038;BME280;47991;42.974;12.082;2023-05-03T01:25:19;97193.58;;;22.22;60.46
62038;BME280;47991;42.974;12.082;2023-05-03T01:27:47;97190.02;;;22.22;60.54
62038;BME280;47991;42.974;12.082;2023-05-03T01:30:15;97189.17;;;22.21;60.57
62038;BME280;47991;42.974;12.082;2023-05-03T01:36:05;97198.48;;;22.18;60.65
62038;BME280;47991;42.974;12.082;2023-05-03T01:38:48;97201.12;;;22.16;60.61
62038;BME280;47991;42.974;12.082;2023-05-03T01:41:16;97195.66;;;22.15;60.59
62038;BME280;47991;42.974;12.082;2023-05-03T01:43:59;97196.30;;;22.14;60.69
62038;BME280;47991;42.974;12.082;2023-05-03T01:46:26;97202.69;;;22.13;60.66
62038;BME280;47991;42.974;12.082;2023-05-03T01:49:07;97203.35;;;22.11;60.67
62038;BME280;47991;42.974;12.082;2023-05-03T01:51:34;97202.15;;;22.11;60.71
62038;BME280;47991;42.974;12.082;2023-05-03T01:54:02;97206.10;;;22.11;60.72
62038;BME280;47991;42.974;12.082;2023-05-03T01:56:33;97204.48;;;22.11;60.67
62038;BME280;47991;42.974;12.082;2023-05-03T01:59:02;97205.33;;;22.09;60.83
62038;BME280;47991;42.974;12.082;2023-05-03T02:01:43;97203.45;;;22.08;60.90
62038;BME280;47991;42.974;12.082;2023-05-03T02:04:13;97206.19;;;22.08;60.88
62038;BME280;47991;42.974;12.082;2023-05-03T02:06:54;97206.59;;;22.07;60.83
62038;BME280;47991;42.974;12.082;2023-05-03T02:09:35;97201.19;;;22.07;60.91
62038;BME280;47991;42.974;12.082;2023-05-03T02:12:03;97199.91;;;22.07;60.76
62038;BME280;47991;42.974;12.082;2023-05-03T02:14:43;97198.20;;;22.06;60.98
62038;BME280;47991;42.974;12.082;2023-05-03T02:17:24;97198.74;;;22.06;60.92
62038;BME280;47991;42.974;12.082;2023-05-03T02:20:06;97197.86;;;22.06;60.96
62038;BME280;47991;42.974;12.082;2023-05-03T02:22:50;97198.86;;;22.07;60.93
62038;BME280;47991;42.974;12.082;2023-05-03T02:25:32;97198.29;;;22.07;61.02
62038;BME280;47991;42.974;12.082;2023-05-03T02:28:12;97191.36;;;22.09;61.09
62038;BME280;47991;42.974;12.082;2023-05-03T02:30:38;97192.88;;;22.10;60.93
62038;BME280;47991;42.974;12.082;2023-05-03T02:33:04;97196.77;;;22.10;60.99
62038;BME280;47991;42.974;12.082;2023-05-03T02:35:31;97191.45;;;22.12;61.08
62038;BME280;47991;42.974;12.082;2023-05-03T02:38:13;97193.70;;;22.13;60.89
62038;BME280;47991;42.974;12.082;2023-05-03T02:40:54;97198.65;;;22.14;60.86
62038;BME280;47991;42.974;12.082;2023-05-03T02:43:35;97205.23;;;22.15;60.71
62038;BME280;47991;42.974;12.082;2023-05-03T02:46:01;97200.69;;;22.15;60.65
62038;BME280;47991;42.974;12.082;2023-05-03T02:48:28;97202.95;;;22.16;60.69
62038;BME280;47991;42.974;12.082;2023-05-03T02:50:56;97204.36;;;22.16;60.65
62038;BME280;47991;42.974;12.082;2023-05-03T02:53:22;97203.43;;;22.17;60.57
62038;BME280;47991;42.974;12.082;2023-05-03T02:55:49;97203.70;;;22.16;60.62
62038;BME280;47991;42.974;12.082;2023-05-03T02:58:30;97201.40;;;22.15;60.62
62038;BME280;47991;42.974;12.082;2023-05-03T03:00:57;97201.33;;;22.14;60.47
62038;BME280;47991;42.974;12.082;2023-05-03T03:03:26;97200.13;;;22.13;60.43
62038;BME280;47991;42.974;12.082;2023-05-03T03:05:54;97201.32;;;22.12;60.36
62038;BME280;47991;42.974;12.082;2023-05-03T03:08:23;97199.05;;;22.11;60.54
62038;BME280;47991;42.974;12.082;2023-05-03T03:10:49;97203.23;;;22.11;60.49
62038;BME280;47991;42.974;12.082;2023-05-03T03:13:16;97209.69;;;22.09;60.45
62038;BME280;47991;42.974;12.082;2023-05-03T03:15:42;97213.52;;;22.08;60.49
62038;BME280;47991;42.974;12.082;2023-05-03T03:18:24;97214.35;;;22.07;60.58
62038;BME280;47991;42.974;12.082;2023-05-03T03:21:08;97213.95;;;22.05;60.49
62038;BME280;47991;42.974;12.082;2023-05-03T03:23:35;97218.11;;;22.05;60.67
62038;BME280;47991;42.974;12.082;2023-05-03T03:26:18;97219.98;;;22.04;60.59
62038;BME280;47991;42.974;12.082;2023-05-03T03:32:13;97228.95;;;22.00;60.60
62038;BME280;47991;42.974;12.082;2023-05-03T03:38:01;97234.41;;;21.97;60.55
62038;BME280;47991;42.974;12.082;2023-05-03T03:40:34;97236.26;;;21.97;60.59
62038;BME280;47991;42.974;12.082;2023-05-03T03:43:01;97238.23;;;21.97;60.59
62038;BME280;47991;42.974;12.082;2023-05-03T03:45:44;97242.98;;;21.96;60.62
62038;BME280;47991;42.974;12.082;2023-05-03T03:48:26;97241.29;;;21.95;60.51
62038;BME280;47991;42.974;12.082;2023-05-03T03:51:08;97244.04;;;21.94;60.70
62038;BME280;47991;42.974;12.082;2023-05-03T03:53:35;97248.89;;;21.94;60.74
62038;BME280;47991;42.974;12.082;2023-05-03T03:56:01;97251.59;;;21.94;60.58
62038;BME280;47991;42.974;12.082;2023-05-03T03:58:43;97250.03;;;21.93;60.60
62038;BME280;47991;42.974;12.082;2023-05-03T04:01:24;97254.98;;;21.92;60.74
62038;BME280;47991;42.974;12.082;2023-05-03T04:03:52;97256.39;;;21.93;60.74
62038;BME280;47991;42.974;12.082;2023-05-03T04:06:19;97261.20;;;21.93;60.58
62038;BME280;47991;42.974;12.082;2023-05-03T04:09:00;97261.17;;;21.94;60.66
62038;BME280;47991;42.974;12.082;2023-05-03T04:11:27;97261.84;;;21.94;60.76
62038;BME280;47991;42.974;12.082;2023-05-03T04:14:12;97267.35;;;21.95;60.81
62038;BME280;47991;42.974;12.082;2023-05-03T04:17:11;97273.41;;;21.96;60.75
62038;BME280;47991;42.974;12.082;2023-05-03T04:19:56;97273.90;;;21.96;60.67
62038;BME280;47991;42.974;12.082;2023-05-03T04:25:38;97279.75;;;21.97;60.63
62038;BME280;47991;42.974;12.082;2023-05-03T04:31:02;97295.77;;;22.00;60.53
62038;BME280;47991;42.974;12.082;2023-05-03T04:33:28;97296.31;;;22.00;60.48
62038;BME280;47991;42.974;12.082;2023-05-03T04:36:46;97302.41;;;22.00;60.56
62038;BME280;47991;42.974;12.082;2023-05-03T04:39:12;97308.77;;;21.99;60.33
62038;BME280;47991;42.974;12.082;2023-05-03T04:41:39;97311.46;;;21.99;60.31
62038;BME280;47991;42.974;12.082;2023-05-03T04:44:25;97312.92;;;21.99;60.24
62038;BME280;47991;42.974;12.082;2023-05-03T04:46:51;97314.17;;;21.99;60.48
62038;BME280;47991;42.974;12.082;2023-05-03T04:52:39;97323.56;;;21.99;60.37
62038;BME280;47991;42.974;12.082;2023-05-03T04:55:06;97326.50;;;21.98;60.46
62038;BME280;47991;42.974;12.082;2023-05-03T04:57:51;97329.42;;;21.97;60.53
62038;BME280;47991;42.974;12.082;2023-05-03T05:00:21;97330.35;;;21.97;60.41
62038;BME280;47991;42.974;12.082;2023-05-03T05:02:48;97333.98;;;21.97;60.24
62038;BME280;47991;42.974;12.082;2023-05-03T05:05:32;97336.83;;;21.97;60.39
62038;BME280;47991;42.974;12.082;2023-05-03T05:08:13;97337.39;;;21.97;60.46
62038;BME280;47991;42.974;12.082;2023-05-03T05:14:00;97343.88;;;21.99;60.47
62038;BME280;47991;42.974;12.082;2023-05-03T05:16:26;97348.09;;;22.00;60.62
62038;BME280;47991;42.974;12.082;2023-05-03T05:19:25;97350.56;;;22.00;60.58
62038;BME280;47991;42.974;12.082;2023-05-03T05:22:06;97354.48;;;22.01;60.68
62038;BME280;47991;42.974;12.082;2023-05-03T05:28:05;97358.17;;;22.02;61.03
62038;BME280;47991;42.974;12.082;2023-05-03T05:30:46;97363.27;;;22.04;60.92
62038;BME280;47991;42.974;12.082;2023-05-03T05:33:12;97368.47;;;22.07;61.14
62038;BME280;47991;42.974;12.082;2023-05-03T05:44:44;97374.36;;;22.14;60.68
62038;BME280;47991;42.974;12.082;2023-05-03T05:47:32;97369.55;;;22.15;60.48
62038;BME280;47991;42.974;12.082;2023-05-03T05:50:32;97370.02;;;22.16;60.57
62038;BME280;47991;42.974;12.082;2023-05-03T05:53:16;97374.70;;;22.16;60.27
62038;BME280;47991;42.974;12.082;2023-05-03T05:56:01;97373.08;;;22.16;60.36
62038;BME280;47991;42.974;12.082;2023-05-03T05:58:27;97379.64;;;22.15;60.21
62038;BME280;47991;42.974;12.082;2023-05-03T06:00:59;97381.00;;;22.16;60.38
62038;BME280;47991;42.974;12.082;2023-05-03T06:03:44;97382.11;;;22.16;60.33
62038;BME280;47991;42.974;12.082;2023-05-03T06:06:10;97381.89;;;22.16;60.32
62038;BME280;47991;42.974;12.082;2023-05-03T06:11:54;97400.33;;;22.15;60.20
62038;BME280;47991;42.974;12.082;2023-05-03T06:14:38;97402.20;;;22.15;60.36
62038;BME280;47991;42.974;12.082;2023-05-03T06:17:05;97400.23;;;22.14;60.18
62038;BME280;47991;42.974;12.082;2023-05-03T06:25:14;97416.55;;;22.13;60.29
62038;BME280;47991;42.974;12.082;2023-05-03T06:27:40;97426.55;;;22.14;60.42
62038;BME280;47991;42.974;12.082;2023-05-03T06:30:07;97432.48;;;22.16;60.25
62038;BME280;47991;42.974;12.082;2023-05-03T06:32:33;97435.86;;;22.19;60.25
62038;BME280;47991;42.974;12.082;2023-05-03T06:35:00;97436.15;;;22.22;60.00
62038;BME280;47991;42.974;12.082;2023-05-03T06:37:46;97434.65;;;22.25;60.17
62038;BME280;47991;42.974;12.082;2023-05-03T06:40:13;97432.98;;;22.28;60.01
62038;BME280;47991;42.974;12.082;2023-05-03T06:43:13;97432.76;;;22.31;60.00
62038;BME280;47991;42.974;12.082;2023-05-03T06:49:00;97433.79;;;22.34;59.42
62038;BME280;47991;42.974;12.082;2023-05-03T06:51:40;97435.70;;;22.35;59.31
62038;BME280;47991;42.974;12.082;2023-05-03T06:54:25;97438.03;;;22.35;59.44
62038;BME280;47991;42.974;12.082;2023-05-03T06:59:40;97449.80;;;22.37;59.40
62038;BME280;47991;42.974;12.082;2023-05-03T07:02:06;97450.16;;;22.36;59.27
62038;BME280;47991;42.974;12.082;2023-05-03T07:04:32;97452.69;;;22.36;59.23
62038;BME280;47991;42.974;12.082;2023-05-03T07:07:17;97455.08;;;22.36;59.31
62038;BME280;47991;42.974;12.082;2023-05-03T07:10:01;97450.45;;;22.35;59.38
62038;BME280;47991;42.974;12.082;2023-05-03T07:12:44;97450.92;;;22.34;59.22
62038;BME280;47991;42.974;12.082;2023-05-03T07:18:15;97458.70;;;22.31;59.40
62038;BME280;47991;42.974;12.082;2023-05-03T07:21:14;97460.01;;;22.31;59.41
62038;BME280;47991;42.974;12.082;2023-05-03T07:23:42;97464.72;;;22.30;59.43
62038;BME280;47991;42.974;12.082;2023-05-03T07:29:31;97471.64;;;22.27;59.46
62038;BME280;47991;42.974;12.082;2023-05-03T07:35:20;97475.45;;;22.24;59.33
62038;BME280;47991;42.974;12.082;2023-05-03T07:37:48;97474.48;;;22.22;59.10
62038;BME280;47991;42.974;12.082;2023-05-03T07:43:32;97475.34;;;22.18;58.19
62038;BME280;47991;42.974;12.082;2023-05-03T07:49:15;97475.42;;;22.18;57.71
62038;BME280;47991;42.974;12.082;2023-05-03T07:51:42;97476.65;;;22.18;58.09
62038;BME280;47991;42.974;12.082;2023-05-03T07:58:03;97477.64;;;22.17;57.83
62038;BME280;47991;42.974;12.082;2023-05-03T08:00:30;97482.60;;;22.18;58.11
62038;BME280;47991;42.974;12.082;2023-05-03T08:03:16;97481.30;;;22.18;58.01
62038;BME280;47991;42.974;12.082;2023-05-03T08:08:48;97484.64;;;22.15;56.02
62038;BME280;47991;42.974;12.082;2023-05-03T08:16:43;97490.36;;;22.04;54.68
62038;BME280;47991;42.974;12.082;2023-05-03T08:19:09;97493.46;;;22.01;54.39
62038;BME280;47991;42.974;12.082;2023-05-03T08:21:49;97497.63;;;21.98;54.12
62038;BME280;47991;42.974;12.082;2023-05-03T08:24:33;97498.04;;;21.96;53.91
62038;BME280;47991;42.974;12.082;2023-05-03T08:27:18;97497.98;;;21.94;54.32
62038;BME280;47991;42.974;12.082;2023-05-03T08:29:58;97505.45;;;21.93;54.41
62038;BME280;47991;42.974;12.082;2023-05-03T08:36:11;97507.67;;;21.92;54.63
62038;BME280;47991;42.974;12.082;2023-05-03T08:45:27;97514.48;;;21.93;54.90
62038;BME280;47991;42.974;12.082;2023-05-03T08:47:53;97520.23;;;21.93;54.93
62038;BME280;47991;42.974;12.082;2023-05-03T08:53:53;97524.80;;;21.92;55.12
62038;BME280;47991;42.974;12.082;2023-05-03T09:01:58;97535.10;;;21.91;55.28
62038;BME280;47991;42.974;12.082;2023-05-03T09:04:32;97530.75;;;21.92;55.38
62038;BME280;47991;42.974;12.082;2023-05-03T09:10:22;97534.91;;;21.89;55.27
62038;BME280;47991;42.974;12.082;2023-05-03T09:12:57;97533.61;;;21.87;54.91
62038;BME280;47991;42.974;12.082;2023-05-03T09:18:19;97532.38;;;21.87;55.18
62038;BME280;47991;42.974;12.082;2023-05-03T09:21:04;97540.27;;;21.87;55.05
62038;BME280;47991;42.974;12.082;2023-05-03T09:23:30;97539.17;;;21.88;55.16
62038;BME280;47991;42.974;12.082;2023-05-03T09:26:28;97542.06;;;21.90;55.31
62038;BME280;47991;42.974;12.082;2023-05-03T09:32:16;97546.95;;;21.92;55.69
62038;BME280;47991;42.974;12.082;2023-05-03T09:38:24;97550.77;;;21.93;55.88
62038;BME280;47991;42.974;12.082;2023-05-03T09:40:51;97553.98;;;21.94;56.13
62038;BME280;47991;42.974;12.082;2023-05-03T09:43:17;97553.55;;;21.95;55.99
62038;BME280;47991;42.974;12.082;2023-05-03T09:46:21;97554.41;;;21.95;55.90
62038;BME280;47991;42.974;12.082;2023-05-03T09:49:22;97556.37;;;21.95;56.00
62038;BME280;47991;42.974;12.082;2023-05-03T09:52:21;97556.85;;;21.96;55.96
62038;BME280;47991;42.974;12.082;2023-05-03T09:55:06;97556.06;;;21.97;56.05
62038;BME280;47991;42.974;12.082;2023-05-03T10:00:55;97560.68;;;21.98;56.29
62038;BME280;47991;42.974;12.082;2023-05-03T10:06:49;97550.13;;;21.99;56.20
62038;BME280;47991;42.974;12.082;2023-05-03T10:12:24;97543.83;;;22.04;56.22
62038;BME280;47991;42.974;12.082;2023-05-03T10:15:11;97548.59;;;22.08;56.07
62038;BME280;47991;42.974;12.082;2023-05-03T10:17:38;97548.39;;;22.10;56.25
62038;BME280;47991;42.974;12.082;2023-05-03T10:28:36;97546.98;;;22.23;56.18
62038;BME280;47991;42.974;12.082;2023-05-03T10:31:46;97548.48;;;22.27;55.97
62038;BME280;47991;42.974;12.082;2023-05-03T10:37:54;97545.98;;;22.32;56.10
62038;BME280;47991;42.974;12.082;2023-05-03T10:40:55;97545.63;;;22.34;56.00
62038;BME280;47991;42.974;12.082;2023-05-03T10:58:08;97546.50;;;22.48;56.39
62038;BME280;47991;42.974;12.082;2023-05-03T11:01:10;97547.56;;;22.53;56.64
62038;BME280;47991;42.974;12.082;2023-05-03T11:03:44;97548.75;;;22.58;57.58
62038;BME280;47991;42.974;12.082;2023-05-03T11:06:27;97545.25;;;22.61;58.15
62038;BME280;47991;42.974;12.082;2023-05-03T11:09:12;97550.55;;;22.65;58.77
62038;BME280;47991;42.974;12.082;2023-05-03T11:14:56;97551.88;;;22.73;59.36
62038;BME280;47991;42.974;12.082;2023-05-03T11:17:41;97548.35;;;22.76;59.59
62038;BME280;47991;42.974;12.082;2023-05-03T11:20:40;97553.92;;;22.81;59.63
62038;BME280;47991;42.974;12.082;2023-05-03T11:23:40;97556.95;;;22.84;59.14
62038;BME280;47991;42.974;12.082;2023-05-03T11:26:08;97555.52;;;22.86;58.89
62038;BME280;47991;42.974;12.082;2023-05-03T11:28:53;97556.46;;;22.87;58.93
62038;BME280;47991;42.974;12.082;2023-05-03T11:31:19;97554.95;;;22.88;58.85
62038;BME280;47991;42.974;12.082;2023-05-03T11:34:04;97560.14;;;22.89;58.82
62038;BME280;47991;42.974;12.082;2023-05-03T11:36:50;97564.88;;;22.88;58.66
62038;BME280;47991;42.974;12.082;2023-05-03T11:42:49;97572.02;;;22.84;58.83
62038;BME280;47991;42.974;12.082;2023-05-03T11:48:42;97572.47;;;22.79;58.59
62038;BME280;47991;42.974;12.082;2023-05-03T11:51:09;97576.20;;;22.77;58.63
62038;BME280;47991;42.974;12.082;2023-05-03T11:54:08;97583.44;;;22.75;58.66
62038;BME280;47991;42.974;12.082;2023-05-03T11:56:50;97577.27;;;22.73;58.53
62038;BME280;47991;42.974;12.082;2023-05-03T11:59:37;97578.21;;;22.70;58.44
62038;BME280;47991;42.974;12.082;2023-05-03T12:02:22;97578.46;;;22.69;58.40
62038;BME280;47991;42.974;12.082;2023-05-03T12:04:51;97578.64;;;22.67;58.58
62038;BME280;47991;42.974;12.082;2023-05-03T12:07:17;97575.09;;;22.67;58.41
62038;BME280;47991;42.974;12.082;2023-05-03T12:09:43;97575.33;;;22.66;58.25
62038;BME280;47991;42.974;12.082;2023-05-03T12:12:18;97578.80;;;22.65;58.17
62038;BME280;47991;42.974;12.082;2023-05-03T12:15:03;97580.05;;;22.66;58.25
62038;BME280;47991;42.974;12.082;2023-05-03T12:17:35;97578.77;;;22.66;58.46
62038;BME280;47991;42.974;12.082;2023-05-03T12:20:20;97572.27;;;22.66;58.30
62038;BME280;47991;42.974;12.082;2023-05-03T12:23:07;97573.70;;;22.66;58.17
62038;BME280;47991;42.974;12.082;2023-05-03T12:25:48;97571.88;;;22.66;58.21
62038;BME280;47991;42.974;12.082;2023-05-03T12:28:31;97570.92;;;22.67;58.09
62038;BME280;47991;42.974;12.082;2023-05-03T12:30:59;97570.52;;;22.67;57.98
62038;BME280;47991;42.974;12.082;2023-05-03T12:33:40;97569.36;;;22.68;57.89
62038;BME280;47991;42.974;12.082;2023-05-03T12:36:06;97569.48;;;22.69;57.93
62038;BME280;47991;42.974;12.082;2023-05-03T12:38:35;97560.61;;;22.70;57.79
62038;BME280;47991;42.974;12.082;2023-05-03T12:41:01;97562.98;;;22.69;57.66
62038;BME280;47991;42.974;12.082;2023-05-03T12:43:43;97562.45;;;22.69;57.61
62038;BME280;47991;42.974;12.082;2023-05-03T12:48:54;97562.58;;;22.72;57.63
62038;BME280;47991;42.974;12.082;2023-05-03T12:51:36;97563.73;;;22.73;57.75
62038;BME280;47991;42.974;12.082;2023-05-03T12:54:08;97559.66;;;22.74;57.74
62038;BME280;47991;42.974;12.082;2023-05-03T12:56:52;97560.61;;;22.76;57.65
62038;BME280;47991;42.974;12.082;2023-05-03T12:59:19;97560.02;;;22.77;57.61
62038;BME280;47991;42.974;12.082;2023-05-03T13:02:02;97561.32;;;22.78;57.65
62038;BME280;47991;42.974;12.082;2023-05-03T13:04:43;97559.10;;;22.79;57.37
62038;BME280;47991;42.974;12.082;2023-05-03T13:07:25;97564.46;;;22.80;57.34
62038;BME280;47991;42.974;12.082;2023-05-03T13:09:57;97564.81;;;22.80;57.28
62038;BME280;47991;42.974;12.082;2023-05-03T13:12:24;97560.46;;;22.80;57.40
62038;BME280;47991;42.974;12.082;2023-05-03T13:14:52;97559.94;;;22.80;57.46
62038;BME280;47991;42.974;12.082;2023-05-03T13:17:20;97559.58;;;22.80;57.42
62038;BME280;47991;42.974;12.082;2023-05-03T13:20:03;97560.75;;;22.82;57.62
62038;BME280;47991;42.974;12.082;2023-05-03T15:11:53;97561.52;;;22.76;57.70
62038;BME280;47991;42.974;12.082;2023-05-03T15:14:34;97559.65;;;22.77;57.78
62038;BME280;47991;42.974;12.082;2023-05-03T15:17:15;97559.48;;;22.81;57.78
62038;BME280;47991;42.974;12.082;2023-05-03T15:19:42;97563.10;;;22.86;57.90
62038;BME280;47991;42.974;12.082;2023-05-03T15:22:10;97567.70;;;22.91;57.82
62038;BME280;47991;42.974;12.082;2023-05-03T15:24:37;97572.02;;;22.95;57.90
62038;BME280;47991;42.974;12.082;2023-05-03T15:27:04;97574.48;;;23.01;57.97
62038;BME280;47991;42.974;12.082;2023-05-03T15:29:31;97574.05;;;23.06;57.80
62038;BME280;47991;42.974;12.082;2023-05-03T15:32:21;97577.41;;;23.11;57.84
62038;BME280;47991;42.974;12.082;2023-05-03T15:34:50;97580.86;;;23.18;57.97
62038;BME280;47991;42.974;12.082;2023-05-03T15:37:18;97578.95;;;23.24;57.92
62038;BME280;47991;42.974;12.082;2023-05-03T15:40:00;97578.27;;;23.29;57.63
62038;BME280;47991;42.974;12.082;2023-05-03T15:42:28;97580.39;;;23.34;57.83
62038;BME280;47991;42.974;12.082;2023-05-03T15:45:08;97591.98;;;23.40;57.86
62038;BME280;47991;42.974;12.082;2023-05-03T15:47:36;97592.48;;;23.45;57.76
62038;BME280;47991;42.974;12.082;2023-05-03T15:50:17;97595.67;;;23.50;57.57
62038;BME280;47991;42.974;12.082;2023-05-03T15:52:59;97598.02;;;23.54;57.38
62038;BME280;47991;42.974;12.082;2023-05-03T15:55:42;97600.82;;;23.58;57.39
62038;BME280;47991;42.974;12.082;2023-05-03T15:58:24;97607.52;;;23.62;57.25
62038;BME280;47991;42.974;12.082;2023-05-03T16:00:54;97612.28;;;23.65;57.32
62038;BME280;47991;42.974;12.082;2023-05-03T16:03:22;97611.21;;;23.69;57.16
62038;BME280;47991;42.974;12.082;2023-05-03T16:06:08;97615.66;;;23.72;57.23
62038;BME280;47991;42.974;12.082;2023-05-03T16:08:36;97617.77;;;23.75;57.09
62038;BME280;47991;42.974;12.082;2023-05-03T16:11:04;97619.52;;;23.78;57.02
62038;BME280;47991;42.974;12.082;2023-05-03T16:13:31;97622.89;;;23.81;56.97
62038;BME280;47991;42.974;12.082;2023-05-03T16:16:05;97626.64;;;23.84;56.93
62038;BME280;47991;42.974;12.082;2023-05-03T16:18:36;97626.55;;;23.87;56.92
62038;BME280;47991;42.974;12.082;2023-05-03T16:21:17;97626.67;;;23.89;56.77
62038;BME280;47991;42.974;12.082;2023-05-03T16:23:44;97628.38;;;23.91;56.83
62038;BME280;47991;42.974;12.082;2023-05-03T16:26:12;97631.39;;;23.94;56.65
62038;BME280;47991;42.974;12.082;2023-05-03T16:28:42;97635.35;;;23.96;56.77
62038;BME280;47991;42.974;12.082;2023-05-03T16:31:11;97632.34;;;23.97;56.55
62038;BME280;47991;42.974;12.082;2023-05-03T16:33:38;97637.25;;;23.99;56.69
62038;BME280;47991;42.974;12.082;2023-05-03T16:36:07;97634.44;;;24.00;56.47
62038;BME280;47991;42.974;12.082;2023-05-03T16:38:36;97637.39;;;24.02;56.46
62038;BME280;47991;42.974;12.082;2023-05-03T16:41:04;97635.50;;;24.03;56.47
62038;BME280;47991;42.974;12.082;2023-05-03T16:43:31;97639.91;;;24.04;56.47
62038;BME280;47991;42.974;12.082;2023-05-03T16:46:12;97641.17;;;24.06;56.37
62038;BME280;47991;42.974;12.082;2023-05-03T16:48:53;97643.79;;;24.07;56.30
62038;BME280;47991;42.974;12.082;2023-05-03T16:51:36;97644.73;;;24.08;56.31
62038;BME280;47991;42.974;12.082;2023-05-03T16:54:09;97645.05;;;24.12;56.08
62038;BME280;47991;42.974;12.082;2023-05-03T16:56:51;97646.79;;;24.12;55.93
62038;BME280;47991;42.974;12.082;2023-05-03T16:59:19;97645.79;;;24.11;55.92
62038;BME280;47991;42.974;12.082;2023-05-03T17:01:46;97648.85;;;24.14;55.99
62038;BME280;47991;42.974;12.082;2023-05-03T17:04:27;97651.00;;;24.14;55.77
62038;BME280;47991;42.974;12.082;2023-05-03T17:07:09;97650.74;;;24.15;55.70
62038;BME280;47991;42.974;12.082;2023-05-03T17:09:37;97649.53;;;24.16;55.89
62038;BME280;47991;42.974;12.082;2023-05-03T17:12:18;97657.94;;;24.17;55.45
62038;BME280;47991;42.974;12.082;2023-05-03T17:14:47;97656.63;;;24.18;55.61
62038;BME280;47991;42.974;12.082;2023-05-03T17:17:30;97658.98;;;24.18;55.77
62038;BME280;47991;42.974;12.082;2023-05-03T17:20:12;97661.61;;;24.19;55.68
62038;BME280;47991;42.974;12.082;2023-05-03T17:22:53;97666.87;;;24.21;55.65
62038;BME280;47991;42.974;12.082;2023-05-03T17:25:38;97669.09;;;24.22;55.39
62038;BME280;47991;42.974;12.082;2023-05-03T17:28:06;97672.44;;;24.23;55.54
62038;BME280;47991;42.974;12.082;2023-05-03T17:30:49;97675.89;;;24.23;55.38
62038;BME280;47991;42.974;12.082;2023-05-03T17:33:15;97681.55;;;24.24;55.42
62038;BME280;47991;42.974;12.082;2023-05-03T17:35:43;97682.33;;;24.25;55.50
62038;BME280;47991;42.974;12.082;2023-05-03T17:38:10;97680.60;;;24.26;55.50
62038;BME280;47991;42.974;12.082;2023-05-03T17:40:51;97683.96;;;24.27;55.49
62038;BME280;47991;42.974;12.082;2023-05-03T17:43:18;97682.64;;;24.28;55.64
62038;BME280;47991;42.974;12.082;2023-05-03T17:46:09;97685.64;;;24.29;55.69
62038;BME280;47991;42.974;12.082;2023-05-03T17:48:51;97682.59;;;24.29;55.81
62038;BME280;47991;42.974;12.082;2023-05-03T17:51:36;97681.75;;;24.30;55.91
62038;BME280;47991;42.974;12.082;2023-05-03T17:54:03;97681.30;;;24.31;56.11
62038;BME280;47991;42.974;12.082;2023-05-03T17:56:31;97681.88;;;24.33;56.09
62038;BME280;47991;42.974;12.082;2023-05-03T17:59:12;97682.36;;;24.34;56.20
62038;BME280;47991;42.974;12.082;2023-05-03T18:01:40;97685.36;;;24.35;56.33
62038;BME280;47991;42.974;12.082;2023-05-03T18:04:08;97683.83;;;24.36;56.62
62038;BME280;47991;42.974;12.082;2023-05-03T18:06:49;97682.58;;;24.35;56.75